Flight Track Log - Related Links

Times and Time Zones

All times are in EDT time to prevent confusion due to time zone crossing. See the UPS1121 flight status page for this flight to view local times or setup timezone preferences in your user account.

Time Position Orientation Groundspeed Altitude Reporting Facility
EDT Latitude Longitude Course Direction KTS MPH feet Rate Location/Type
Fri 21:33:58 42.7653 -73.8061 135° Southeast 164 189 1,700  Level Boston Center
Fri 21:34:32 42.7880 -73.7930 65° Northeast 171 197 2,200 818 Climbing FlightAware ADS-B
Fri 21:34:42 42.7900 -73.7830 75° East 184 212 2,300 2,444 Climbing FlightAware ADS-B
Fri 21:34:59 42.7844 -73.7669 56° Northeast 195 224 3,300 2,200 Climbing Boston Center
Fri 21:35:12 42.7740 -73.7520 125° Southeast 229 264 3,400 2,118 Climbing FlightAware ADS-B
Fri 21:35:16 42.7661 -73.7439 137° Southeast 235 270 3,900 3,800 Climbing Boston Center
Fri 21:35:42 42.7470 -73.7230 142° Southeast 241 277 5,300 3,333 Climbing FlightAware ADS-B
Fri 21:35:52 42.7370 -73.7120 141° Southeast 256 295 5,900 4,412 Climbing FlightAware ADS-B
Fri 21:36:16 42.7144 -73.6919 144° Southeast 262 302 7,800 3,120 Climbing Boston Center
Fri 21:36:17 42.7160 -73.6900 142° Southeast 267 307 7,200 -1,385 Descending FlightAware ADS-B
Fri 21:36:42 42.6920 -73.6650 143° Southeast 267 307 7,200 3,458 Level FlightAware ADS-B
Fri 21:37:16 42.6528 -73.6258 142° Southeast 273 314 10,600 2,426 Climbing Boston Center
Fri 21:38:16 42.5783 -73.5425 140° Southeast 317 365 11,000 250 Climbing Boston Center
Fri 21:39:00 42.5735 -73.5535 135° Southeast  Level FlightAware Approximate
Fri 21:39:16 42.5042 -73.4622 141° Southeast 343 395 11,100  Level Boston Center
Fri 21:40:16 42.4425 -73.3797 135° Southeast 348 400 11,100 -50 Level Boston Center
Fri 21:41:16 42.3703 -73.2747 133° Southeast 343 395 11,000 -50 Descending Boston Center
Fri 21:42:16 42.3061 -73.1867 135° Southeast 334 384 11,000 -200 Level Boston Center
Fri 21:43:16 42.2442 -73.1217 142° Southeast 306 352 10,600 -1,000 Descending Boston Center
Fri 21:44:16 42.1650 -73.0928 165° South 290 334 9,000 -1,400 Descending Boston Center
Fri 21:45:16 42.0922 -73.0667 165° South 279 321 7,800 -1,400 Descending Boston Center
Fri 21:46:16 42.0217 -73.0464 168° South 273 314 6,200 -1,600 Descending Boston Center
Fri 21:47:16 41.9592 -72.9983 150° Southeast 263 303 4,600 -1,600 Descending Boston Center
Fri 21:47:31 41.9428 -72.9844 148° Southeast 262 302 4,200 -900 Descending Boston Center
Fri 21:48:16 41.9136 -72.9422 133° Southeast 257 296 3,700 -800 Descending Boston Center
Fri 21:48:31 41.8950 -72.9225 142° Southeast 243 280 3,400 -700 Descending Boston Center
Fri 21:49:16 41.8703 -72.8889 135° Southeast 237 273 3,000 -689 Descending Boston Center
Fri 21:49:32 41.8556 -72.8750 145° Southeast 198 228 2,700 -1,000 Descending Boston Center
Fri 21:50:16 41.8475 -72.8275 103° East 211 243 2,000 -885 Descending Boston Center
Fri 21:50:33 41.8497 -72.8081 81° East 177 204 1,800 -300 Descending Boston Center
Fri 21:51:16 41.8683 -72.7803 48° Northeast 143 165 1,700 -100 Descending Boston Center
Fri 21:51:33 41.8789 -72.7719 30° Northeast 142 163 1,700 -538 Level Boston Center
Fri 21:52:34 41.9019 -72.7414 45° Northeast 115 132 1,000 -641 Descending Boston Center
Fri 21:53:16 41.9167 -72.7192 48° Northeast 112 129 600 -689 Descending Boston Center
Fri 21:53:35 41.9250 -72.7081 45° Northeast 114 131 300 -947 Descending Boston Center
Fri 21:55:00 41.9333 -72.6833 45° Northeast  Level FlightAware Approximate

Login

Don't have an account? Register now (free) for customized features, flight alerts, and more!